SBI4580 USRR-USTR
Flight info
| Callsign | SBI4580 |
|---|---|
| Flight time | 1h 11m |
| Altitude | 38000 |
| Route | ANIKI1E ANIKI T797 NERUG NERUG1N |
| Aircraft | B738/M-SDE2E3FGHIRWXY/LB1 |
Departure
| Time | 2026-04-21 15:56 |
|---|---|
| Airport | Surgut International Airport (USRR) |
Arrival
| Time | 2026-04-21 17:07 |
|---|---|
| Airport | Roshchino International Airport (USTR) |
| Time | Latitude | Longitude | Altitude | Speed | Heading |
|---|---|---|---|---|---|
| 2026-04-21 15:28 | 61.34074 | 73.40704 | 196 ft | 0 kts | 179° |
| 2026-04-21 15:42 | 61.34074 | 73.40703 | 197 ft | 0 kts | 179° |
| 2026-04-21 15:44 | 61.34078 | 73.40703 | 197 ft | 2 kts | 178° |
| 2026-04-21 15:44 | 61.34095 | 73.40703 | 202 ft | 2 kts | 174° |
| 2026-04-21 15:44 | 61.34110 | 73.40706 | 203 ft | 2 kts | 208° |
| 2026-04-21 15:44 | 61.34117 | 73.40699 | 204 ft | 0 kts | 279° |
| 2026-04-21 15:46 | 61.34118 | 73.40695 | 204 ft | 1 kts | 291° |
| 2026-04-21 15:46 | 61.34128 | 73.40695 | 202 ft | 5 kts | 359° |
| 2026-04-21 15:46 | 61.34166 | 73.40642 | 196 ft | 6 kts | 292° |
| 2026-04-21 15:46 | 61.34169 | 73.40620 | 200 ft | 3 kts | 282° |
| 2026-04-21 15:47 | 61.34169 | 73.40610 | 207 ft | 0 kts | 279° |
| 2026-04-21 15:48 | 61.34170 | 73.40594 | 205 ft | 5 kts | 276° |
| 2026-04-21 15:49 | 61.34172 | 73.40419 | 205 ft | 17 kts | 269° |
| 2026-04-21 15:49 | 61.34170 | 73.40128 | 205 ft | 20 kts | 269° |
| 2026-04-21 15:49 | 61.34169 | 73.39852 | 205 ft | 20 kts | 270° |
| 2026-04-21 15:49 | 61.34167 | 73.39500 | 204 ft | 23 kts | 270° |
| 2026-04-21 15:50 | 61.34166 | 73.39160 | 192 ft | 22 kts | 269° |
| 2026-04-21 15:50 | 61.34164 | 73.38797 | 191 ft | 28 kts | 269° |
| 2026-04-21 15:50 | 61.34162 | 73.38432 | 190 ft | 27 kts | 270° |
| 2026-04-21 15:50 | 61.34208 | 73.38165 | 194 ft | 17 kts | 320° |
| 2026-04-21 15:51 | 61.34239 | 73.38111 | 198 ft | 0 kts | 321° |
| 2026-04-21 15:52 | 61.34255 | 73.38085 | 192 ft | 8 kts | 324° |
| 2026-04-21 15:52 | 61.34337 | 73.38027 | 190 ft | 17 kts | 341° |
| 2026-04-21 15:52 | 61.34377 | 73.37788 | 195 ft | 23 kts | 283° |
| 2026-04-21 15:52 | 61.34374 | 73.37637 | 192 ft | 3 kts | 234° |
| 2026-04-21 15:53 | 61.34333 | 73.37616 | 196 ft | 8 kts | 160° |
| 2026-04-21 15:53 | 61.34322 | 73.37660 | 189 ft | 4 kts | 96° |
| 2026-04-21 15:53 | 61.34342 | 73.37726 | 192 ft | 10 kts | 47° |
| 2026-04-21 15:53 | 61.34373 | 73.37862 | 203 ft | 6 kts | 90° |
| 2026-04-21 15:54 | 61.34373 | 73.37868 | 191 ft | 0 kts | 89° |
| 2026-04-21 15:55 | 61.34372 | 73.37893 | 191 ft | 8 kts | 91° |
| 2026-04-21 15:55 | 61.34376 | 73.38700 | 189 ft | 104 kts | 90° |
| 2026-04-21 15:55 | 61.34380 | 73.40804 | 294 ft | 180 kts | 89° |
| 2026-04-21 15:56 | 61.34409 | 73.43687 | 861 ft | 218 kts | 89° |
| 2026-04-21 15:56 | 61.34433 | 73.47088 | 1595 ft | 249 kts | 90° |
| 2026-04-21 15:56 | 61.34533 | 73.50814 | 2387 ft | 261 kts | 82° |
| 2026-04-21 15:56 | 61.35417 | 73.54073 | 3408 ft | 266 kts | 46° |
| 2026-04-21 15:57 | 61.37054 | 73.55759 | 4463 ft | 272 kts | 7° |
| 2026-04-21 15:57 | 61.38879 | 73.55027 | 5699 ft | 270 kts | 331° |
| 2026-04-21 15:57 | 61.40200 | 73.52315 | 6725 ft | 271 kts | 296° |
| 2026-04-21 15:57 | 61.40579 | 73.48525 | 7610 ft | 270 kts | 265° |
| 2026-04-21 15:58 | 61.40676 | 73.44597 | 8566 ft | 273 kts | 280° |
| 2026-04-21 15:58 | 61.40790 | 73.40667 | 9529 ft | 274 kts | 258° |
| 2026-04-21 15:58 | 61.39936 | 73.37153 | 10440 ft | 277 kts | 225° |
| 2026-04-21 15:58 | 61.38357 | 73.34667 | 10923 ft | 297 kts | 213° |
| 2026-04-21 15:59 | 61.36505 | 73.32345 | 11130 ft | 323 kts | 212° |
| 2026-04-21 15:59 | 61.34613 | 73.29586 | 11523 ft | 338 kts | 226° |
| 2026-04-21 15:59 | 61.33296 | 73.25527 | 12308 ft | 339 kts | 244° |
| 2026-04-21 15:59 | 61.32255 | 73.21138 | 13239 ft | 339 kts | 246° |
| 2026-04-21 16:00 | 61.31235 | 73.16677 | 14096 ft | 342 kts | 247° |
| 2026-04-21 16:00 | 61.30213 | 73.12189 | 14846 ft | 344 kts | 248° |
| 2026-04-21 16:00 | 61.29183 | 73.07693 | 15632 ft | 346 kts | 248° |
| 2026-04-21 16:00 | 61.28141 | 73.03178 | 16420 ft | 347 kts | 248° |
| 2026-04-21 16:01 | 61.27085 | 72.98641 | 17182 ft | 350 kts | 249° |
| 2026-04-21 16:01 | 61.26017 | 72.94074 | 17944 ft | 352 kts | 249° |
| 2026-04-21 16:01 | 61.24954 | 72.89552 | 18662 ft | 354 kts | 249° |
| 2026-04-21 16:01 | 61.23865 | 72.84938 | 19305 ft | 356 kts | 249° |
| 2026-04-21 16:02 | 61.22767 | 72.80299 | 19937 ft | 358 kts | 249° |
| 2026-04-21 16:02 | 61.21664 | 72.75646 | 20572 ft | 361 kts | 249° |
| 2026-04-21 16:02 | 61.20549 | 72.70960 | 21189 ft | 363 kts | 249° |
| 2026-04-21 16:02 | 61.19645 | 72.66137 | 21769 ft | 354 kts | 262° |
| 2026-04-21 16:03 | 61.18869 | 72.61252 | 22388 ft | 363 kts | 251° |
| 2026-04-21 16:03 | 61.17723 | 72.56501 | 22793 ft | 375 kts | 242° |
| 2026-04-21 16:03 | 61.16102 | 72.52527 | 24019 ft | 354 kts | 237° |
| 2026-04-21 16:03 | 61.15073 | 72.48323 | 25679 ft | 312 kts | 256° |
| 2026-04-21 16:04 | 61.14193 | 72.44243 | 26533 ft | 313 kts | 248° |
| 2026-04-21 16:04 | 61.13131 | 72.40193 | 26640 ft | 327 kts | 248° |
| 2026-04-21 16:04 | 61.12052 | 72.35928 | 26704 ft | 342 kts | 242° |
| 2026-04-21 16:04 | 61.10311 | 72.32368 | 25749 ft | 382 kts | 231° |
| 2026-04-21 16:05 | 61.08917 | 72.27781 | 25887 ft | 374 kts | 253° |
| 2026-04-21 16:05 | 61.08208 | 72.23037 | 28089 ft | 310 kts | 257° |
| 2026-04-21 16:05 | 61.07655 | 72.19222 | 30956 ft | 251 kts | 260° |
| 2026-04-21 16:05 | 61.07333 | 72.15741 | 31559 ft | 252 kts | 267° |
| 2026-04-21 16:06 | 61.06898 | 72.11954 | 30601 ft | 301 kts | 246° |
| 2026-04-21 16:06 | 61.05617 | 72.08074 | 29845 ft | 340 kts | 243° |
| 2026-04-21 16:06 | 61.04390 | 72.03940 | 29972 ft | 346 kts | 246° |
| 2026-04-21 16:06 | 61.03240 | 71.99507 | 30057 ft | 354 kts | 248° |
| 2026-04-21 16:07 | 61.00956 | 71.90208 | 30222 ft | 372 kts | 247° |
| 2026-04-21 16:07 | 60.99489 | 71.85686 | 30278 ft | 390 kts | 235° |
| 2026-04-21 16:07 | 60.97474 | 71.81784 | 30371 ft | 404 kts | 227° |
| 2026-04-21 16:08 | 60.93055 | 71.74409 | 30766 ft | 412 kts | 226° |
| 2026-04-21 16:08 | 60.90815 | 71.70688 | 31096 ft | 412 kts | 226° |
| 2026-04-21 16:08 | 60.88601 | 71.66967 | 31423 ft | 411 kts | 226° |
| 2026-04-21 16:09 | 60.86392 | 71.63220 | 31718 ft | 412 kts | 226° |
| 2026-04-21 16:09 | 60.84213 | 71.59519 | 32000 ft | 413 kts | 226° |
| 2026-04-21 16:09 | 60.82000 | 71.55760 | 32307 ft | 413 kts | 226° |
| 2026-04-21 16:09 | 60.79780 | 71.51992 | 32617 ft | 413 kts | 226° |
| 2026-04-21 16:10 | 60.77561 | 71.48225 | 32918 ft | 414 kts | 226° |
| 2026-04-21 16:10 | 60.75346 | 71.44471 | 33204 ft | 415 kts | 226° |
| 2026-04-21 16:10 | 60.73120 | 71.40705 | 33513 ft | 415 kts | 226° |
| 2026-04-21 16:10 | 60.70892 | 71.36944 | 33827 ft | 415 kts | 226° |
| 2026-04-21 16:11 | 60.68666 | 71.33193 | 34111 ft | 415 kts | 226° |
| 2026-04-21 16:11 | 60.66437 | 71.29443 | 34345 ft | 416 kts | 225° |
| 2026-04-21 16:11 | 60.64202 | 71.25690 | 34548 ft | 417 kts | 225° |
| 2026-04-21 16:11 | 60.61955 | 71.21924 | 34766 ft | 418 kts | 225° |
| 2026-04-21 16:12 | 60.60466 | 71.19433 | 34905 ft | 418 kts | 225° |
| 2026-04-21 16:12 | 60.57451 | 71.14397 | 35186 ft | 419 kts | 225° |
| 2026-04-21 16:12 | 60.55194 | 71.10637 | 35403 ft | 420 kts | 225° |
| 2026-04-21 16:12 | 60.52934 | 71.06878 | 35608 ft | 420 kts | 225° |
| 2026-04-21 16:13 | 60.50666 | 71.03113 | 35806 ft | 421 kts | 225° |
| 2026-04-21 16:13 | 60.48398 | 70.99354 | 36014 ft | 422 kts | 225° |
| 2026-04-21 16:13 | 60.46148 | 70.95633 | 36204 ft | 423 kts | 225° |
| 2026-04-21 16:13 | 60.43867 | 70.91868 | 36388 ft | 423 kts | 225° |
| 2026-04-21 16:14 | 60.41580 | 70.88098 | 36594 ft | 424 kts | 225° |
| 2026-04-21 16:14 | 60.39288 | 70.84330 | 36790 ft | 424 kts | 225° |
| 2026-04-21 16:14 | 60.36992 | 70.80561 | 36974 ft | 425 kts | 224° |
| 2026-04-21 16:14 | 60.34689 | 70.76786 | 37156 ft | 426 kts | 224° |
| 2026-04-21 16:15 | 60.32387 | 70.73022 | 37356 ft | 426 kts | 224° |
| 2026-04-21 16:15 | 60.30078 | 70.69252 | 37529 ft | 427 kts | 224° |
| 2026-04-21 16:15 | 60.27763 | 70.65481 | 37713 ft | 428 kts | 224° |
| 2026-04-21 16:15 | 60.25450 | 70.61719 | 37907 ft | 428 kts | 224° |
| 2026-04-21 16:16 | 60.23134 | 70.57960 | 38083 ft | 428 kts | 224° |
| 2026-04-21 16:16 | 60.18470 | 70.50407 | 38088 ft | 431 kts | 224° |
| 2026-04-21 16:17 | 60.13842 | 70.42950 | 38079 ft | 427 kts | 224° |
| 2026-04-21 16:17 | 60.09215 | 70.35519 | 38076 ft | 424 kts | 224° |
| 2026-04-21 16:18 | 60.04622 | 70.28166 | 38078 ft | 422 kts | 224° |
| 2026-04-21 16:18 | 60.00044 | 70.20864 | 38070 ft | 420 kts | 224° |
| 2026-04-21 16:19 | 59.95465 | 70.13584 | 38066 ft | 421 kts | 224° |
| 2026-04-21 16:19 | 59.90883 | 70.06328 | 38070 ft | 422 kts | 224° |
| 2026-04-21 16:20 | 59.86274 | 69.99055 | 38057 ft | 423 kts | 224° |
| 2026-04-21 16:20 | 59.81640 | 69.91770 | 38058 ft | 425 kts | 223° |
| 2026-04-21 16:21 | 59.76997 | 69.84497 | 38053 ft | 426 kts | 223° |
| 2026-04-21 16:21 | 59.72330 | 69.77214 | 38049 ft | 427 kts | 223° |
| 2026-04-21 16:22 | 59.67653 | 69.69942 | 38041 ft | 428 kts | 223° |
| 2026-04-21 16:22 | 59.62962 | 69.62673 | 38039 ft | 428 kts | 223° |
| 2026-04-21 16:23 | 59.58439 | 69.55165 | 38002 ft | 424 kts | 232° |
| 2026-04-21 16:23 | 59.56646 | 69.50647 | 38187 ft | 412 kts | 243° |
| 2026-04-21 16:23 | 59.55436 | 69.45547 | 37833 ft | 415 kts | 253° |
| 2026-04-21 16:23 | 59.54164 | 69.40471 | 37907 ft | 417 kts | 236° |
| 2026-04-21 16:24 | 59.52007 | 69.36622 | 37944 ft | 426 kts | 215° |
| 2026-04-21 16:24 | 59.49231 | 69.34389 | 38043 ft | 436 kts | 202° |
| 2026-04-21 16:24 | 59.46298 | 69.32728 | 38013 ft | 438 kts | 204° |
| 2026-04-21 16:25 | 59.40774 | 69.27968 | 38012 ft | 430 kts | 217° |
| 2026-04-21 16:25 | 59.35870 | 69.21363 | 38009 ft | 427 kts | 223° |
| 2026-04-21 16:26 | 59.31210 | 69.14225 | 38005 ft | 428 kts | 224° |
| 2026-04-21 16:26 | 59.26509 | 69.07030 | 37998 ft | 429 kts | 223° |
| 2026-04-21 16:27 | 59.21788 | 68.99923 | 37990 ft | 428 kts | 223° |
| 2026-04-21 16:27 | 59.17059 | 68.92846 | 37983 ft | 427 kts | 223° |
| 2026-04-21 16:28 | 59.12620 | 68.85337 | 37989 ft | 420 kts | 230° |
| 2026-04-21 16:28 | 59.08500 | 68.77322 | 37978 ft | 418 kts | 230° |
| 2026-04-21 16:29 | 59.05083 | 68.70689 | 37978 ft | 416 kts | 230° |
| 2026-04-21 16:29 | 59.00307 | 68.61510 | 37976 ft | 415 kts | 230° |
| 2026-04-21 16:30 | 58.96193 | 68.53661 | 37970 ft | 414 kts | 230° |
| 2026-04-21 16:30 | 58.92080 | 68.45851 | 37962 ft | 414 kts | 229° |
| 2026-04-21 16:31 | 58.87960 | 68.38052 | 37966 ft | 414 kts | 229° |
| 2026-04-21 16:31 | 58.85910 | 68.34179 | 37505 ft | 421 kts | 229° |
| 2026-04-21 16:31 | 58.83794 | 68.30190 | 36977 ft | 418 kts | 229° |
| 2026-04-21 16:31 | 58.81743 | 68.26337 | 36454 ft | 415 kts | 229° |
| 2026-04-21 16:32 | 58.79675 | 68.22458 | 35862 ft | 414 kts | 229° |
| 2026-04-21 16:32 | 58.77612 | 68.18593 | 35205 ft | 413 kts | 229° |
| 2026-04-21 16:32 | 58.75554 | 68.14744 | 34658 ft | 411 kts | 229° |
| 2026-04-21 16:32 | 58.73512 | 68.10933 | 34225 ft | 406 kts | 229° |
| 2026-04-21 16:33 | 58.71497 | 68.07181 | 33735 ft | 401 kts | 229° |
| 2026-04-21 16:33 | 58.69506 | 68.03477 | 33249 ft | 396 kts | 229° |
| 2026-04-21 16:33 | 58.67539 | 67.99824 | 32803 ft | 390 kts | 229° |
| 2026-04-21 16:33 | 58.65602 | 67.96231 | 32364 ft | 385 kts | 229° |
| 2026-04-21 16:34 | 58.63686 | 67.92681 | 31918 ft | 380 kts | 229° |
| 2026-04-21 16:34 | 58.61796 | 67.89185 | 31490 ft | 375 kts | 229° |
| 2026-04-21 16:34 | 58.59929 | 67.85736 | 31066 ft | 371 kts | 229° |
| 2026-04-21 16:34 | 58.58701 | 67.83471 | 30788 ft | 368 kts | 229° |
| 2026-04-21 16:35 | 58.56248 | 67.78951 | 30220 ft | 363 kts | 229° |
| 2026-04-21 16:35 | 58.55043 | 67.76736 | 29933 ft | 361 kts | 228° |
| 2026-04-21 16:35 | 58.53240 | 67.73425 | 29479 ft | 357 kts | 228° |
| 2026-04-21 16:35 | 58.51461 | 67.70163 | 29031 ft | 352 kts | 228° |
| 2026-04-21 16:36 | 58.49706 | 67.66950 | 28630 ft | 347 kts | 228° |
| 2026-04-21 16:36 | 58.47970 | 67.63777 | 28215 ft | 343 kts | 228° |
| 2026-04-21 16:36 | 58.46253 | 67.60642 | 27801 ft | 340 kts | 228° |
| 2026-04-21 16:36 | 58.44553 | 67.57541 | 27372 ft | 336 kts | 228° |
| 2026-04-21 16:37 | 58.42869 | 67.54474 | 26969 ft | 334 kts | 228° |
| 2026-04-21 16:37 | 58.41187 | 67.51416 | 26559 ft | 332 kts | 227° |
| 2026-04-21 16:37 | 58.39516 | 67.48381 | 26147 ft | 331 kts | 227° |
| 2026-04-21 16:37 | 58.37835 | 67.45329 | 25758 ft | 339 kts | 227° |
| 2026-04-21 16:38 | 58.36099 | 67.42178 | 25347 ft | 348 kts | 227° |
| 2026-04-21 16:38 | 58.34368 | 67.39047 | 24909 ft | 347 kts | 227° |
| 2026-04-21 16:38 | 58.32620 | 67.35897 | 24487 ft | 344 kts | 227° |
| 2026-04-21 16:38 | 58.30885 | 67.32772 | 24064 ft | 342 kts | 227° |
| 2026-04-21 16:39 | 58.29163 | 67.29675 | 23652 ft | 339 kts | 227° |
| 2026-04-21 16:39 | 58.27453 | 67.26603 | 23182 ft | 337 kts | 227° |
| 2026-04-21 16:39 | 58.25750 | 67.23548 | 22718 ft | 335 kts | 226° |
| 2026-04-21 16:39 | 58.24063 | 67.20524 | 22286 ft | 332 kts | 226° |
| 2026-04-21 16:40 | 58.22392 | 67.17534 | 21876 ft | 328 kts | 226° |
| 2026-04-21 16:40 | 58.20736 | 67.14574 | 21455 ft | 326 kts | 226° |
| 2026-04-21 16:40 | 58.19089 | 67.11633 | 21054 ft | 323 kts | 226° |
| 2026-04-21 16:40 | 58.17456 | 67.08722 | 20650 ft | 321 kts | 226° |
| 2026-04-21 16:41 | 58.15854 | 67.05869 | 20262 ft | 319 kts | 226° |
| 2026-04-21 16:41 | 58.14244 | 67.03006 | 19872 ft | 317 kts | 226° |
| 2026-04-21 16:41 | 58.12643 | 67.00164 | 19489 ft | 315 kts | 226° |
| 2026-04-21 16:41 | 58.11046 | 66.97331 | 19103 ft | 313 kts | 226° |
| 2026-04-21 16:42 | 58.09459 | 66.94518 | 18722 ft | 312 kts | 226° |
| 2026-04-21 16:42 | 58.07866 | 66.91698 | 18331 ft | 313 kts | 226° |
| 2026-04-21 16:42 | 58.06271 | 66.88880 | 18104 ft | 316 kts | 226° |
| 2026-04-21 16:42 | 58.04647 | 66.86010 | 17838 ft | 323 kts | 226° |
| 2026-04-21 16:43 | 58.02992 | 66.83085 | 17568 ft | 327 kts | 226° |
| 2026-04-21 16:43 | 58.01356 | 66.80196 | 17288 ft | 325 kts | 226° |
| 2026-04-21 16:43 | 57.99712 | 66.77297 | 17013 ft | 322 kts | 225° |
| 2026-04-21 16:43 | 57.98059 | 66.74385 | 16736 ft | 320 kts | 225° |
| 2026-04-21 16:44 | 57.96461 | 66.71574 | 16471 ft | 318 kts | 225° |
| 2026-04-21 16:44 | 57.94826 | 66.68702 | 16197 ft | 316 kts | 225° |
| 2026-04-21 16:44 | 57.93242 | 66.65922 | 15938 ft | 315 kts | 225° |
| 2026-04-21 16:44 | 57.91642 | 66.63116 | 15682 ft | 314 kts | 225° |
| 2026-04-21 16:45 | 57.90045 | 66.60321 | 15430 ft | 313 kts | 225° |
| 2026-04-21 16:45 | 57.88455 | 66.57543 | 15137 ft | 311 kts | 225° |
| 2026-04-21 16:45 | 57.86885 | 66.54802 | 14823 ft | 306 kts | 225° |
| 2026-04-21 16:45 | 57.85326 | 66.52085 | 14473 ft | 304 kts | 225° |
| 2026-04-21 16:46 | 57.83789 | 66.49408 | 14139 ft | 301 kts | 225° |
| 2026-04-21 16:46 | 57.82263 | 66.46754 | 13812 ft | 298 kts | 225° |
| 2026-04-21 16:46 | 57.80747 | 66.44121 | 13454 ft | 296 kts | 225° |
| 2026-04-21 16:46 | 57.79249 | 66.41522 | 13134 ft | 292 kts | 225° |
| 2026-04-21 16:47 | 57.77769 | 66.38957 | 12819 ft | 288 kts | 225° |
| 2026-04-21 16:47 | 57.76307 | 66.36426 | 12512 ft | 284 kts | 225° |
| 2026-04-21 16:47 | 57.74865 | 66.33933 | 12222 ft | 280 kts | 225° |
| 2026-04-21 16:47 | 57.73443 | 66.31476 | 11927 ft | 277 kts | 225° |
| 2026-04-21 16:48 | 57.72052 | 66.29075 | 11638 ft | 274 kts | 225° |
| 2026-04-21 16:48 | 57.70643 | 66.26644 | 11318 ft | 277 kts | 225° |
| 2026-04-21 16:48 | 57.69218 | 66.24190 | 11022 ft | 280 kts | 225° |
| 2026-04-21 16:48 | 57.67772 | 66.21702 | 10714 ft | 285 kts | 225° |
| 2026-04-21 16:49 | 57.66319 | 66.19194 | 10407 ft | 283 kts | 225° |
| 2026-04-21 16:49 | 57.64910 | 66.16675 | 10231 ft | 274 kts | 226° |
| 2026-04-21 16:49 | 57.63563 | 66.14236 | 10103 ft | 265 kts | 226° |
| 2026-04-21 16:49 | 57.62261 | 66.11877 | 9979 ft | 256 kts | 226° |
| 2026-04-21 16:50 | 57.61004 | 66.09603 | 9876 ft | 247 kts | 226° |
| 2026-04-21 16:50 | 57.59790 | 66.07413 | 9721 ft | 240 kts | 226° |
| 2026-04-21 16:50 | 57.58596 | 66.05261 | 9505 ft | 236 kts | 226° |
| 2026-04-21 16:50 | 57.57421 | 66.03148 | 9270 ft | 233 kts | 226° |
| 2026-04-21 16:51 | 57.56257 | 66.01058 | 9023 ft | 231 kts | 225° |
| 2026-04-21 16:51 | 57.55097 | 65.98976 | 8784 ft | 233 kts | 225° |
| 2026-04-21 16:51 | 57.53918 | 65.96863 | 8545 ft | 238 kts | 225° |
| 2026-04-21 16:51 | 57.52707 | 65.94694 | 8286 ft | 245 kts | 225° |
| 2026-04-21 16:52 | 57.51467 | 65.92478 | 8011 ft | 248 kts | 225° |
| 2026-04-21 16:52 | 57.50244 | 65.90302 | 7764 ft | 245 kts | 223° |
| 2026-04-21 16:52 | 57.48773 | 65.88739 | 7550 ft | 244 kts | 201° |
| 2026-04-21 16:52 | 57.47117 | 65.88098 | 7328 ft | 243 kts | 191° |
| 2026-04-21 16:53 | 57.45501 | 65.87310 | 7050 ft | 242 kts | 214° |
| 2026-04-21 16:53 | 57.44162 | 65.85403 | 6826 ft | 245 kts | 221° |
| 2026-04-21 16:53 | 57.42841 | 65.83382 | 6581 ft | 247 kts | 221° |
| 2026-04-21 16:53 | 57.41515 | 65.81369 | 6330 ft | 245 kts | 220° |
| 2026-04-21 16:54 | 57.40196 | 65.79384 | 6063 ft | 244 kts | 220° |
| 2026-04-21 16:54 | 57.38878 | 65.77416 | 5801 ft | 243 kts | 220° |
| 2026-04-21 16:54 | 57.37544 | 65.75438 | 5543 ft | 249 kts | 220° |
| 2026-04-21 16:54 | 57.36163 | 65.73397 | 5297 ft | 257 kts | 220° |
| 2026-04-21 16:55 | 57.34751 | 65.71321 | 5038 ft | 261 kts | 219° |
| 2026-04-21 16:55 | 57.33335 | 65.69246 | 4775 ft | 258 kts | 219° |
| 2026-04-21 16:55 | 57.31937 | 65.67202 | 4507 ft | 254 kts | 219° |
| 2026-04-21 16:55 | 57.30556 | 65.65187 | 4231 ft | 251 kts | 219° |
| 2026-04-21 16:56 | 57.29195 | 65.63203 | 3957 ft | 248 kts | 219° |
| 2026-04-21 16:56 | 57.27851 | 65.61248 | 3703 ft | 247 kts | 218° |
| 2026-04-21 16:56 | 57.26502 | 65.59287 | 3446 ft | 247 kts | 218° |
| 2026-04-21 16:56 | 57.25142 | 65.57314 | 3185 ft | 249 kts | 218° |
| 2026-04-21 16:57 | 57.23773 | 65.55330 | 3043 ft | 252 kts | 218° |
| 2026-04-21 16:57 | 57.22400 | 65.53342 | 3001 ft | 256 kts | 218° |
| 2026-04-21 16:57 | 57.20992 | 65.51304 | 3000 ft | 257 kts | 218° |
| 2026-04-21 16:57 | 57.19587 | 65.49274 | 2987 ft | 255 kts | 218° |
| 2026-04-21 16:58 | 57.18194 | 65.47262 | 2982 ft | 253 kts | 218° |
| 2026-04-21 16:58 | 57.16814 | 65.45271 | 2982 ft | 250 kts | 218° |
| 2026-04-21 16:58 | 57.15442 | 65.43293 | 2998 ft | 250 kts | 217° |
| 2026-04-21 16:58 | 57.14075 | 65.41327 | 3001 ft | 249 kts | 217° |
| 2026-04-21 16:59 | 57.12711 | 65.39367 | 2994 ft | 250 kts | 217° |
| 2026-04-21 16:59 | 57.11341 | 65.37400 | 2994 ft | 250 kts | 217° |
| 2026-04-21 16:59 | 57.09955 | 65.35414 | 3006 ft | 254 kts | 217° |
| 2026-04-21 16:59 | 57.08555 | 65.33408 | 2998 ft | 255 kts | 217° |
| 2026-04-21 17:00 | 57.07161 | 65.31409 | 2986 ft | 254 kts | 217° |
| 2026-04-21 17:00 | 57.05770 | 65.29417 | 2981 ft | 252 kts | 216° |
| 2026-04-21 17:00 | 57.04854 | 65.28108 | 2986 ft | 252 kts | 216° |
| 2026-04-21 17:00 | 57.03071 | 65.25559 | 2999 ft | 234 kts | 216° |
| 2026-04-21 17:01 | 57.01858 | 65.23740 | 2978 ft | 217 kts | 226° |
| 2026-04-21 17:01 | 57.01225 | 65.21373 | 2977 ft | 204 kts | 262° |
| 2026-04-21 17:01 | 57.01357 | 65.18803 | 2886 ft | 206 kts | 290° |
| 2026-04-21 17:01 | 57.02098 | 65.16582 | 2756 ft | 206 kts | 316° |
| 2026-04-21 17:02 | 57.03137 | 65.14755 | 2635 ft | 207 kts | 321° |
| 2026-04-21 17:02 | 57.04194 | 65.13007 | 2511 ft | 201 kts | 322° |
| 2026-04-21 17:02 | 57.05211 | 65.11325 | 2367 ft | 191 kts | 322° |
| 2026-04-21 17:02 | 57.06315 | 65.10204 | 2208 ft | 174 kts | 355° |
| 2026-04-21 17:03 | 57.07501 | 65.10292 | 2213 ft | 169 kts | 22° |
| 2026-04-21 17:03 | 57.08477 | 65.11346 | 2193 ft | 160 kts | 49° |
| 2026-04-21 17:03 | 57.09281 | 65.12753 | 2191 ft | 159 kts | 47° |
| 2026-04-21 17:03 | 57.10030 | 65.14157 | 2126 ft | 151 kts | 51° |
| 2026-04-21 17:04 | 57.10715 | 65.15535 | 1976 ft | 147 kts | 52° |
| 2026-04-21 17:04 | 57.11405 | 65.16930 | 1827 ft | 139 kts | 52° |
| 2026-04-21 17:04 | 57.12030 | 65.18194 | 1653 ft | 128 kts | 53° |
| 2026-04-21 17:04 | 57.12616 | 65.19381 | 1484 ft | 125 kts | 52° |
| 2026-04-21 17:05 | 57.13192 | 65.20546 | 1345 ft | 123 kts | 52° |
| 2026-04-21 17:05 | 57.13775 | 65.21725 | 1210 ft | 126 kts | 52° |
| 2026-04-21 17:05 | 57.14368 | 65.22921 | 1059 ft | 128 kts | 50° |
| 2026-04-21 17:05 | 57.15006 | 65.24138 | 890 ft | 134 kts | 52° |
| 2026-04-21 17:06 | 57.15601 | 65.25409 | 790 ft | 131 kts | 54° |
| 2026-04-21 17:06 | 57.16238 | 65.26689 | 608 ft | 135 kts | 52° |
| 2026-04-21 17:06 | 57.16870 | 65.27994 | 424 ft | 137 kts | 52° |
| 2026-04-21 17:06 | 57.17476 | 65.29238 | 369 ft | 116 kts | 47° |
| 2026-04-21 17:07 | 57.17799 | 65.29893 | 362 ft | 92 kts | 48° |
| 2026-04-21 17:07 | 57.18179 | 65.30663 | 359 ft | 0 kts | 56° |
| 2026-04-21 17:08 | 57.18243 | 65.30806 | 358 ft | 21 kts | 44° |
| 2026-04-21 17:08 | 57.18352 | 65.31013 | 353 ft | 23 kts | 47° |
| 2026-04-21 17:08 | 57.18461 | 65.31232 | 353 ft | 24 kts | 47° |
| 2026-04-21 17:09 | 57.18692 | 65.31721 | 352 ft | 19 kts | 70° |
| 2026-04-21 17:09 | 57.18644 | 65.31893 | 348 ft | 18 kts | 137° |
| 2026-04-21 17:09 | 57.18635 | 65.31908 | 357 ft | 1 kts | 138° |
| 2026-04-21 17:10 | 57.18634 | 65.31910 | 357 ft | 0 kts | 139° |
| 2026-04-21 17:12 | 57.18626 | 65.31922 | 350 ft | 3 kts | 140° |
| 2026-04-21 17:13 | 57.18605 | 65.31958 | 347 ft | 6 kts | 136° |
| 2026-04-21 17:13 | 57.18559 | 65.32034 | 354 ft | 12 kts | 138° |
| 2026-04-21 17:13 | 57.18485 | 65.32158 | 340 ft | 15 kts | 137° |
| 2026-04-21 17:13 | 57.18469 | 65.32331 | 337 ft | 17 kts | 82° |
| 2026-04-21 17:14 | 57.18477 | 65.32586 | 332 ft | 22 kts | 85° |
| 2026-04-21 17:14 | 57.18483 | 65.32847 | 329 ft | 17 kts | 87° |
| 2026-04-21 17:14 | 57.18487 | 65.33037 | 327 ft | 15 kts | 84° |
| 2026-04-21 17:14 | 57.18520 | 65.33154 | 332 ft | 10 kts | 41° |
| 2026-04-21 17:15 | 57.18503 | 65.33268 | 332 ft | 11 kts | 135° |
| 2026-04-21 17:15 | 57.18446 | 65.33373 | 331 ft | 12 kts | 136° |
| 2026-04-21 17:15 | 57.18380 | 65.33493 | 334 ft | 16 kts | 132° |
| 2026-04-21 17:15 | 57.18284 | 65.33670 | 334 ft | 23 kts | 135° |
| 2026-04-21 17:16 | 57.18159 | 65.33903 | 336 ft | 28 kts | 135° |
| 2026-04-21 17:16 | 57.18019 | 65.34164 | 342 ft | 26 kts | 134° |
| 2026-04-21 17:16 | 57.17911 | 65.34397 | 345 ft | 20 kts | 110° |
| 2026-04-21 17:16 | 57.17936 | 65.34575 | 347 ft | 11 kts | 60° |
| 2026-04-21 17:17 | 57.17959 | 65.34629 | 348 ft | 0 kts | 45° |
| 2026-04-21 17:17 | 57.17960 | 65.34629 | 348 ft | 0 kts | 45° |
| 2026-04-21 17:17 | 57.17967 | 65.34642 | 346 ft | 3 kts | 46° |
| 2026-04-21 17:17 | 57.17996 | 65.34694 | 344 ft | 9 kts | 31° |
| 2026-04-21 17:18 | 57.18059 | 65.34685 | 344 ft | 4 kts | 18° |
| 2026-04-21 17:18 | 57.18083 | 65.34713 | 342 ft | 4 kts | 40° |
| 2026-04-21 17:18 | 57.18087 | 65.34721 | 342 ft | 0 kts | 43° |